Elnora, New York
Current Conditions -  °F | °C
As of 4:51 AM on Friday 24 Oct 2014 (Local Time) from KALB Reporting Station
Light Rain Light Rain  
Wind Chill: 44°   Ceiling: 600
Heat Index: 46°   Visibility: 8mi
Dew Point: 44°   Wind: 5mph
Humidity: 93%   Direction: 40°NE
Pressure: 29.82"   Gusts: NA
Location:  42.8536°N, 73.7851°W
Report Text: KALB 240851Z 04004KT 8SM -RA BKN006 OVC017 08/07 A2982 RMK AO2 DZE25RAB50 SLP099 PCPN VRY LGT P0000 60002 T00780067 55008
Loading
Personal Weather Stations






























Interactive Weather Map
Tropical Storm Tracking
New forecast layout! Learn more

10-Day Weather Forecast

Advertisements
Track Severe Weather on mobile